SAWP/PMQ METAR and TAF weather

Enter ICAO airport designator
Station Type Date Time Source
SAWP METAR 2018/07/16 15:00 UTC NOAA

SAWP 161500Z 02003KT 5000 -SN BKN013 BKN045 M01/M03 Q1023


Station Type Date Time Source
SAWP Decoded METAR 2018/07/16 15:00 UTC NOAA

Perito Moreno Aerodrome, Argentina (SAWP) 46-31S 071-01W 429M
Jul 16, 2018 - 11:00 AM EDT / 2018.07.16 1500 UTC
Wind: from the NNE (020 degrees) at 3 MPH (3 KT):0
Visibility: 3 mile(s):0
Sky conditions: mostly cloudy
Weather: light snow
Temperature: 30 F (-1 C)
Dew Point: 26 F (-3 C)
Relative Humidity: 86%
Pressure (altimeter): 30.21 in. Hg (1023 hPa)
ob: SAWP 161500Z 02003KT 5000 -SN BKN013 BKN045 M01/M03 Q1023
cycle: 15

Station Type Date Time Source
SAWP TAF UTC NOAA

Error!


Example: see airport list